sensor_id;sensor_type;location;lat;lon;timestamp;P1;durP1;ratioP1;P2;durP2;ratioP2
26201;SDS011;13944;28.562;77.188;2023-02-01T00:00:25;191.87;;;94.80;;
26201;SDS011;13944;28.562;77.188;2023-02-01T00:02:52;190.70;;;95.27;;
26201;SDS011;13944;28.562;77.188;2023-02-01T00:05:19;191.17;;;95.30;;
26201;SDS011;13944;28.562;77.188;2023-02-01T00:07:49;199.00;;;96.17;;
26201;SDS011;13944;28.562;77.188;2023-02-01T00:10:16;201.90;;;95.80;;
26201;SDS011;13944;28.562;77.188;2023-02-01T00:12:43;195.63;;;92.90;;
26201;SDS011;13944;28.562;77.188;2023-02-01T00:15:10;193.63;;;95.03;;
26201;SDS011;13944;28.562;77.188;2023-02-01T00:17:37;193.20;;;93.33;;
26201;SDS011;13944;28.562;77.188;2023-02-01T00:20:05;194.57;;;94.07;;
26201;SDS011;13944;28.562;77.188;2023-02-01T00:22:32;202.73;;;92.13;;
26201;SDS011;13944;28.562;77.188;2023-02-01T00:24:59;204.37;;;96.60;;
26201;SDS011;13944;28.562;77.188;2023-02-01T00:27:29;191.73;;;94.10;;
26201;SDS011;13944;28.562;77.188;2023-02-01T00:29:56;199.70;;;94.53;;
26201;SDS011;13944;28.562;77.188;2023-02-01T00:32:23;185.40;;;90.27;;
26201;SDS011;13944;28.562;77.188;2023-02-01T00:34:50;197.80;;;95.43;;
26201;SDS011;13944;28.562;77.188;2023-02-01T00:37:17;191.47;;;94.70;;
26201;SDS011;13944;28.562;77.188;2023-02-01T00:39:44;187.83;;;92.50;;
26201;SDS011;13944;28.562;77.188;2023-02-01T00:42:11;183.53;;;92.03;;
26201;SDS011;13944;28.562;77.188;2023-02-01T00:44:38;192.63;;;93.13;;
26201;SDS011;13944;28.562;77.188;2023-02-01T00:47:05;198.83;;;95.63;;
26201;SDS011;13944;28.562;77.188;2023-02-01T00:49:32;189.30;;;94.73;;
26201;SDS011;13944;28.562;77.188;2023-02-01T00:51:59;189.17;;;92.10;;
26201;SDS011;13944;28.562;77.188;2023-02-01T00:54:26;197.17;;;94.50;;
26201;SDS011;13944;28.562;77.188;2023-02-01T00:56:53;195.87;;;95.47;;
26201;SDS011;13944;28.562;77.188;2023-02-01T00:59:20;206.13;;;97.73;;
26201;SDS011;13944;28.562;77.188;2023-02-01T01:01:47;201.83;;;98.50;;
26201;SDS011;13944;28.562;77.188;2023-02-01T01:04:14;194.30;;;98.27;;
26201;SDS011;13944;28.562;77.188;2023-02-01T01:06:41;203.77;;;98.43;;
26201;SDS011;13944;28.562;77.188;2023-02-01T01:09:09;205.82;;;102.95;;
26201;SDS011;13944;28.562;77.188;2023-02-01T01:11:37;204.13;;;99.03;;
26201;SDS011;13944;28.562;77.188;2023-02-01T01:14:04;200.40;;;99.13;;
26201;SDS011;13944;28.562;77.188;2023-02-01T01:16:32;192.90;;;97.80;;
26201;SDS011;13944;28.562;77.188;2023-02-01T01:19:00;202.37;;;97.67;;
26201;SDS011;13944;28.562;77.188;2023-02-01T01:21:27;206.30;;;97.57;;
26201;SDS011;13944;28.562;77.188;2023-02-01T01:23:55;199.50;;;98.43;;
26201;SDS011;13944;28.562;77.188;2023-02-01T01:26:23;181.23;;;93.80;;
26201;SDS011;13944;28.562;77.188;2023-02-01T01:28:50;192.83;;;96.10;;
26201;SDS011;13944;28.562;77.188;2023-02-01T01:31:18;188.10;;;94.10;;
26201;SDS011;13944;28.562;77.188;2023-02-01T01:33:49;189.93;;;94.70;;
26201;SDS011;13944;28.562;77.188;2023-02-01T01:36:16;189.83;;;95.97;;
26201;SDS011;13944;28.562;77.188;2023-02-01T01:38:43;194.50;;;95.30;;
26201;SDS011;13944;28.562;77.188;2023-02-01T01:41:15;192.93;;;98.07;;
26201;SDS011;13944;28.562;77.188;2023-02-01T01:43:59;300.73;;;105.10;;
26201;SDS011;13944;28.562;77.188;2023-02-01T01:46:30;208.63;;;99.07;;
26201;SDS011;13944;28.562;77.188;2023-02-01T01:51:50;198.73;;;96.60;;
26201;SDS011;13944;28.562;77.188;2023-02-01T01:54:25;196.00;;;95.47;;
26201;SDS011;13944;28.562;77.188;2023-02-01T01:56:57;194.47;;;93.97;;
26201;SDS011;13944;28.562;77.188;2023-02-01T01:59:24;203.70;;;95.33;;
26201;SDS011;13944;28.562;77.188;2023-02-01T02:01:52;194.23;;;91.53;;
26201;SDS011;13944;28.562;77.188;2023-02-01T02:04:19;188.87;;;89.67;;
26201;SDS011;13944;28.562;77.188;2023-02-01T02:09:52;180.20;;;85.70;;
26201;SDS011;13944;28.562;77.188;2023-02-01T02:12:19;184.43;;;89.13;;
26201;SDS011;13944;28.562;77.188;2023-02-01T02:14:46;183.70;;;88.80;;
26201;SDS011;13944;28.562;77.188;2023-02-01T02:35:44;155.17;;;74.03;;
26201;SDS011;13944;28.562;77.188;2023-02-01T02:38:35;152.57;;;74.73;;
26201;SDS011;13944;28.562;77.188;2023-02-01T02:49:09;143.40;;;70.97;;
26201;SDS011;13944;28.562;77.188;2023-02-01T02:51:41;143.40;;;69.27;;
26201;SDS011;13944;28.562;77.188;2023-02-01T02:54:29;136.87;;;69.37;;
26201;SDS011;13944;28.562;77.188;2023-02-01T02:57:12;133.80;;;67.57;;
26201;SDS011;13944;28.562;77.188;2023-02-01T02:59:58;139.20;;;70.27;;
26201;SDS011;13944;28.562;77.188;2023-02-01T03:02:45;135.53;;;67.60;;
26201;SDS011;13944;28.562;77.188;2023-02-01T03:05:35;144.90;;;69.83;;
26201;SDS011;13944;28.562;77.188;2023-02-01T03:08:04;127.30;;;66.97;;
26201;SDS011;13944;28.562;77.188;2023-02-01T03:13:42;136.77;;;69.00;;
26201;SDS011;13944;28.562;77.188;2023-02-01T03:18:18;136.53;;;66.23;;
26201;SDS011;13944;28.562;77.188;2023-02-01T03:20:46;132.83;;;65.57;;
26201;SDS011;13944;28.562;77.188;2023-02-01T03:23:15;131.40;;;65.97;;
26201;SDS011;13944;28.562;77.188;2023-02-01T03:25:45;124.00;;;63.10;;
26201;SDS011;13944;28.562;77.188;2023-02-01T03:28:14;133.80;;;65.83;;
26201;SDS011;13944;28.562;77.188;2023-02-01T03:30:46;125.23;;;65.63;;
26201;SDS011;13944;28.562;77.188;2023-02-01T03:33:19;137.50;;;66.27;;
26201;SDS011;13944;28.562;77.188;2023-02-01T03:44:24;124.07;;;63.83;;
26201;SDS011;13944;28.562;77.188;2023-02-01T03:47:11;127.57;;;65.23;;
26201;SDS011;13944;28.562;77.188;2023-02-01T03:49:20;124.30;;;66.13;;
26201;SDS011;13944;28.562;77.188;2023-02-01T03:51:48;120.73;;;62.93;;
26201;SDS011;13944;28.562;77.188;2023-02-01T03:54:16;128.63;;;68.33;;
26201;SDS011;13944;28.562;77.188;2023-02-01T03:56:45;131.07;;;67.37;;
26201;SDS011;13944;28.562;77.188;2023-02-01T03:59:13;129.93;;;66.20;;
26201;SDS011;13944;28.562;77.188;2023-02-01T04:01:41;125.73;;;65.60;;
26201;SDS011;13944;28.562;77.188;2023-02-01T04:04:08;135.50;;;67.00;;
26201;SDS011;13944;28.562;77.188;2023-02-01T04:06:35;124.53;;;66.07;;
26201;SDS011;13944;28.562;77.188;2023-02-01T04:09:02;123.23;;;61.77;;
26201;SDS011;13944;28.562;77.188;2023-02-01T04:11:29;125.97;;;64.07;;
26201;SDS011;13944;28.562;77.188;2023-02-01T04:13:56;123.57;;;66.43;;
26201;SDS011;13944;28.562;77.188;2023-02-01T04:16:23;126.10;;;63.27;;
26201;SDS011;13944;28.562;77.188;2023-02-01T04:18:50;116.30;;;61.37;;
26201;SDS011;13944;28.562;77.188;2023-02-01T04:21:17;113.33;;;59.67;;
26201;SDS011;13944;28.562;77.188;2023-02-01T04:23:44;115.97;;;60.40;;
26201;SDS011;13944;28.562;77.188;2023-02-01T04:26:11;114.57;;;58.37;;
26201;SDS011;13944;28.562;77.188;2023-02-01T04:28:38;119.57;;;61.00;;
26201;SDS011;13944;28.562;77.188;2023-02-01T04:31:05;112.93;;;59.00;;
26201;SDS011;13944;28.562;77.188;2023-02-01T04:33:32;113.03;;;58.50;;
26201;SDS011;13944;28.562;77.188;2023-02-01T04:35:59;114.07;;;60.27;;
26201;SDS011;13944;28.562;77.188;2023-02-01T04:38:38;105.80;;;58.97;;
26201;SDS011;13944;28.562;77.188;2023-02-01T04:41:07;117.17;;;57.87;;
26201;SDS011;13944;28.562;77.188;2023-02-01T04:47:04;114.00;;;59.50;;
26201;SDS011;13944;28.562;77.188;2023-02-01T04:49:47;114.93;;;62.20;;
26201;SDS011;13944;28.562;77.188;2023-02-01T04:52:20;117.40;;;60.63;;
26201;SDS011;13944;28.562;77.188;2023-02-01T04:54:54;127.80;;;61.27;;
26201;SDS011;13944;28.562;77.188;2023-02-01T05:00:19;114.23;;;59.70;;
26201;SDS011;13944;28.562;77.188;2023-02-01T05:06:07;112.40;;;60.10;;
26201;SDS011;13944;28.562;77.188;2023-02-01T05:08:43;119.17;;;59.47;;
26201;SDS011;13944;28.562;77.188;2023-02-01T05:11:23;106.50;;;58.50;;
26201;SDS011;13944;28.562;77.188;2023-02-01T05:14:08;107.83;;;57.57;;
26201;SDS011;13944;28.562;77.188;2023-02-01T05:16:36;103.13;;;56.47;;
26201;SDS011;13944;28.562;77.188;2023-02-01T05:19:03;99.23;;;55.43;;
26201;SDS011;13944;28.562;77.188;2023-02-01T05:21:30;91.17;;;51.23;;
26201;SDS011;13944;28.562;77.188;2023-02-01T05:23:57;108.00;;;57.33;;
26201;SDS011;13944;28.562;77.188;2023-02-01T05:26:39;101.63;;;55.03;;
26201;SDS011;13944;28.562;77.188;2023-02-01T05:29:06;103.47;;;55.07;;
26201;SDS011;13944;28.562;77.188;2023-02-01T05:31:33;100.57;;;54.63;;
26201;SDS011;13944;28.562;77.188;2023-02-01T05:34:00;96.23;;;54.37;;
26201;SDS011;13944;28.562;77.188;2023-02-01T05:36:28;99.63;;;55.03;;
26201;SDS011;13944;28.562;77.188;2023-02-01T05:38:55;96.10;;;53.37;;
26201;SDS011;13944;28.562;77.188;2023-02-01T05:41:22;92.73;;;52.87;;
26201;SDS011;13944;28.562;77.188;2023-02-01T05:43:49;100.27;;;53.23;;
26201;SDS011;13944;28.562;77.188;2023-02-01T05:46:16;99.63;;;54.40;;
26201;SDS011;13944;28.562;77.188;2023-02-01T05:48:43;93.50;;;49.57;;
26201;SDS011;13944;28.562;77.188;2023-02-01T05:51:10;96.27;;;53.73;;
26201;SDS011;13944;28.562;77.188;2023-02-01T05:53:37;90.90;;;51.67;;
26201;SDS011;13944;28.562;77.188;2023-02-01T05:56:04;92.40;;;51.63;;
26201;SDS011;13944;28.562;77.188;2023-02-01T05:58:31;91.07;;;50.83;;
26201;SDS011;13944;28.562;77.188;2023-02-01T06:00:59;93.13;;;53.17;;
26201;SDS011;13944;28.562;77.188;2023-02-01T06:03:26;98.90;;;53.30;;
26201;SDS011;13944;28.562;77.188;2023-02-01T06:05:53;90.53;;;49.73;;
26201;SDS011;13944;28.562;77.188;2023-02-01T06:08:20;92.57;;;51.20;;
26201;SDS011;13944;28.562;77.188;2023-02-01T06:10:49;86.30;;;48.50;;
26201;SDS011;13944;28.562;77.188;2023-02-01T06:13:17;94.73;;;52.47;;
26201;SDS011;13944;28.562;77.188;2023-02-01T06:15:45;91.10;;;49.60;;
26201;SDS011;13944;28.562;77.188;2023-02-01T06:18:12;92.30;;;51.60;;
26201;SDS011;13944;28.562;77.188;2023-02-01T06:20:41;97.90;;;53.70;;
26201;SDS011;13944;28.562;77.188;2023-02-01T06:23:08;90.97;;;50.80;;
26201;SDS011;13944;28.562;77.188;2023-02-01T06:25:35;87.87;;;49.23;;
26201;SDS011;13944;28.562;77.188;2023-02-01T06:28:03;94.40;;;52.07;;
26201;SDS011;13944;28.562;77.188;2023-02-01T06:30:31;92.30;;;52.03;;
26201;SDS011;13944;28.562;77.188;2023-02-01T06:32:58;95.10;;;50.20;;
26201;SDS011;13944;28.562;77.188;2023-02-01T06:35:26;93.23;;;50.70;;
26201;SDS011;13944;28.562;77.188;2023-02-01T06:37:53;74.87;;;42.63;;
26201;SDS011;13944;28.562;77.188;2023-02-01T06:40:20;82.83;;;47.33;;
26201;SDS011;13944;28.562;77.188;2023-02-01T06:42:48;90.50;;;52.27;;
26201;SDS011;13944;28.562;77.188;2023-02-01T06:45:15;87.83;;;49.23;;
26201;SDS011;13944;28.562;77.188;2023-02-01T06:47:42;88.57;;;49.47;;
26201;SDS011;13944;28.562;77.188;2023-02-01T06:50:09;89.73;;;50.90;;
26201;SDS011;13944;28.562;77.188;2023-02-01T06:52:37;80.47;;;46.30;;
26201;SDS011;13944;28.562;77.188;2023-02-01T06:55:04;85.40;;;48.47;;
26201;SDS011;13944;28.562;77.188;2023-02-01T06:57:31;88.73;;;49.10;;
26201;SDS011;13944;28.562;77.188;2023-02-01T06:59:59;95.03;;;52.73;;
26201;SDS011;13944;28.562;77.188;2023-02-01T07:02:26;87.00;;;48.37;;
26201;SDS011;13944;28.562;77.188;2023-02-01T07:04:54;87.63;;;49.53;;
26201;SDS011;13944;28.562;77.188;2023-02-01T07:07:21;80.73;;;47.07;;
26201;SDS011;13944;28.562;77.188;2023-02-01T07:09:48;86.27;;;48.37;;
26201;SDS011;13944;28.562;77.188;2023-02-01T07:12:15;84.93;;;49.03;;
26201;SDS011;13944;28.562;77.188;2023-02-01T07:14:43;85.03;;;49.67;;
26201;SDS011;13944;28.562;77.188;2023-02-01T07:17:11;82.73;;;47.90;;
26201;SDS011;13944;28.562;77.188;2023-02-01T07:19:38;83.93;;;50.97;;
26201;SDS011;13944;28.562;77.188;2023-02-01T07:22:05;81.90;;;48.67;;
26201;SDS011;13944;28.562;77.188;2023-02-01T07:24:33;96.90;;;52.17;;
26201;SDS011;13944;28.562;77.188;2023-02-01T07:27:00;90.50;;;51.13;;
26201;SDS011;13944;28.562;77.188;2023-02-01T07:29:27;92.50;;;51.70;;
26201;SDS011;13944;28.562;77.188;2023-02-01T07:31:54;93.80;;;52.83;;
26201;SDS011;13944;28.562;77.188;2023-02-01T07:34:21;96.10;;;51.63;;
26201;SDS011;13944;28.562;77.188;2023-02-01T07:36:48;90.40;;;51.97;;
26201;SDS011;13944;28.562;77.188;2023-02-01T07:39:15;93.23;;;52.23;;
26201;SDS011;13944;28.562;77.188;2023-02-01T07:41:42;88.37;;;50.97;;
26201;SDS011;13944;28.562;77.188;2023-02-01T07:44:09;89.13;;;51.20;;
26201;SDS011;13944;28.562;77.188;2023-02-01T07:46:36;88.73;;;48.93;;
26201;SDS011;13944;28.562;77.188;2023-02-01T07:49:05;90.20;;;50.07;;
26201;SDS011;13944;28.562;77.188;2023-02-01T07:51:32;84.53;;;47.70;;
26201;SDS011;13944;28.562;77.188;2023-02-01T07:53:59;85.33;;;49.53;;
26201;SDS011;13944;28.562;77.188;2023-02-01T07:56:26;87.23;;;49.30;;
26201;SDS011;13944;28.562;77.188;2023-02-01T07:58:53;84.17;;;48.60;;
26201;SDS011;13944;28.562;77.188;2023-02-01T08:01:22;82.17;;;47.33;;
26201;SDS011;13944;28.562;77.188;2023-02-01T08:03:54;88.63;;;49.73;;
26201;SDS011;13944;28.562;77.188;2023-02-01T08:06:21;95.27;;;49.00;;
26201;SDS011;13944;28.562;77.188;2023-02-01T08:08:52;87.53;;;49.07;;
26201;SDS011;13944;28.562;77.188;2023-02-01T08:11:20;82.17;;;47.73;;
26201;SDS011;13944;28.562;77.188;2023-02-01T08:13:47;86.93;;;48.80;;
26201;SDS011;13944;28.562;77.188;2023-02-01T08:16:15;85.53;;;49.97;;
26201;SDS011;13944;28.562;77.188;2023-02-01T08:18:43;83.03;;;47.97;;
26201;SDS011;13944;28.562;77.188;2023-02-01T08:21:11;81.67;;;47.93;;
26201;SDS011;13944;28.562;77.188;2023-02-01T08:23:39;78.90;;;45.33;;
26201;SDS011;13944;28.562;77.188;2023-02-01T08:26:11;78.30;;;45.67;;
26201;SDS011;13944;28.562;77.188;2023-02-01T08:28:40;76.10;;;43.80;;
26201;SDS011;13944;28.562;77.188;2023-02-01T08:31:08;79.07;;;45.83;;
26201;SDS011;13944;28.562;77.188;2023-02-01T08:33:36;83.23;;;46.40;;
26201;SDS011;13944;28.562;77.188;2023-02-01T08:36:04;90.23;;;49.10;;
26201;SDS011;13944;28.562;77.188;2023-02-01T08:38:31;85.30;;;48.77;;
26201;SDS011;13944;28.562;77.188;2023-02-01T08:41:03;74.67;;;44.30;;
26201;SDS011;13944;28.562;77.188;2023-02-01T08:43:31;80.07;;;45.50;;
26201;SDS011;13944;28.562;77.188;2023-02-01T08:45:58;79.20;;;45.90;;
26201;SDS011;13944;28.562;77.188;2023-02-01T08:48:27;93.47;;;49.50;;
26201;SDS011;13944;28.562;77.188;2023-02-01T08:50:55;85.03;;;44.70;;
26201;SDS011;13944;28.562;77.188;2023-02-01T08:53:22;78.83;;;47.80;;
26201;SDS011;13944;28.562;77.188;2023-02-01T08:55:49;76.87;;;45.73;;
26201;SDS011;13944;28.562;77.188;2023-02-01T08:58:16;80.27;;;45.43;;
26201;SDS011;13944;28.562;77.188;2023-02-01T09:00:43;79.57;;;44.17;;
26201;SDS011;13944;28.562;77.188;2023-02-01T09:03:11;82.40;;;46.07;;
26201;SDS011;13944;28.562;77.188;2023-02-01T09:05:38;78.50;;;42.90;;
26201;SDS011;13944;28.562;77.188;2023-02-01T09:08:06;82.33;;;45.60;;
26201;SDS011;13944;28.562;77.188;2023-02-01T09:10:33;68.90;;;41.70;;
26201;SDS011;13944;28.562;77.188;2023-02-01T09:13:00;80.30;;;46.00;;
26201;SDS011;13944;28.562;77.188;2023-02-01T09:15:28;81.20;;;44.80;;
26201;SDS011;13944;28.562;77.188;2023-02-01T09:17:55;80.70;;;43.90;;
26201;SDS011;13944;28.562;77.188;2023-02-01T09:20:22;67.53;;;40.53;;
26201;SDS011;13944;28.562;77.188;2023-02-01T09:22:50;80.30;;;45.63;;
26201;SDS011;13944;28.562;77.188;2023-02-01T09:25:17;78.97;;;44.57;;
26201;SDS011;13944;28.562;77.188;2023-02-01T09:27:44;67.97;;;38.60;;
26201;SDS011;13944;28.562;77.188;2023-02-01T09:30:12;89.27;;;48.87;;
26201;SDS011;13944;28.562;77.188;2023-02-01T09:32:39;84.37;;;48.17;;
26201;SDS011;13944;28.562;77.188;2023-02-01T09:35:06;79.30;;;44.27;;
26201;SDS011;13944;28.562;77.188;2023-02-01T09:37:33;72.77;;;41.67;;
26201;SDS011;13944;28.562;77.188;2023-02-01T09:40:01;85.67;;;47.37;;
26201;SDS011;13944;28.562;77.188;2023-02-01T09:45:17;76.57;;;42.77;;
26201;SDS011;13944;28.562;77.188;2023-02-01T09:47:51;84.20;;;45.13;;
26201;SDS011;13944;28.562;77.188;2023-02-01T09:50:21;94.27;;;47.10;;
26201;SDS011;13944;28.562;77.188;2023-02-01T09:52:57;76.17;;;45.47;;
26201;SDS011;13944;28.562;77.188;2023-02-01T09:57:58;82.00;;;44.13;;
26201;SDS011;13944;28.562;77.188;2023-02-01T10:00:30;80.33;;;43.77;;
26201;SDS011;13944;28.562;77.188;2023-02-01T10:03:00;80.33;;;45.93;;
26201;SDS011;13944;28.562;77.188;2023-02-01T10:05:33;80.93;;;47.53;;
26201;SDS011;13944;28.562;77.188;2023-02-01T10:10:47;78.00;;;47.07;;
26201;SDS011;13944;28.562;77.188;2023-02-01T10:16:45;81.37;;;46.43;;
26201;SDS011;13944;28.562;77.188;2023-02-01T10:21:32;74.37;;;43.87;;
26201;SDS011;13944;28.562;77.188;2023-02-01T10:26:35;85.97;;;47.57;;
26201;SDS011;13944;28.562;77.188;2023-02-01T10:29:05;74.77;;;42.03;;
26201;SDS011;13944;28.562;77.188;2023-02-01T10:31:36;76.07;;;43.47;;
26201;SDS011;13944;28.562;77.188;2023-02-01T10:34:12;86.83;;;46.97;;
26201;SDS011;13944;28.562;77.188;2023-02-01T10:36:42;87.03;;;51.70;;
26201;SDS011;13944;28.562;77.188;2023-02-01T10:39:14;97.97;;;52.57;;
26201;SDS011;13944;28.562;77.188;2023-02-01T10:41:41;83.47;;;49.03;;
26201;SDS011;13944;28.562;77.188;2023-02-01T10:44:12;79.67;;;45.67;;
26201;SDS011;13944;28.562;77.188;2023-02-01T10:46:40;78.50;;;46.30;;
26201;SDS011;13944;28.562;77.188;2023-02-01T10:49:11;78.93;;;47.27;;
26201;SDS011;13944;28.562;77.188;2023-02-01T10:52:24;86.57;;;48.90;;
26201;SDS011;13944;28.562;77.188;2023-02-01T10:54:35;80.43;;;47.33;;
26201;SDS011;13944;28.562;77.188;2023-02-01T10:57:08;89.30;;;49.97;;
26201;SDS011;13944;28.562;77.188;2023-02-01T10:59:36;83.20;;;47.53;;
26201;SDS011;13944;28.562;77.188;2023-02-01T11:02:19;78.53;;;46.03;;
26201;SDS011;13944;28.562;77.188;2023-02-01T11:04:47;82.77;;;47.23;;
26201;SDS011;13944;28.562;77.188;2023-02-01T11:07:23;83.17;;;45.97;;
26201;SDS011;13944;28.562;77.188;2023-02-01T11:09:51;78.60;;;42.50;;
26201;SDS011;13944;28.562;77.188;2023-02-01T11:12:25;83.70;;;46.67;;
26201;SDS011;13944;28.562;77.188;2023-02-01T11:15:13;86.50;;;47.47;;
26201;SDS011;13944;28.562;77.188;2023-02-01T11:17:44;76.47;;;43.33;;
26201;SDS011;13944;28.562;77.188;2023-02-01T11:20:16;86.33;;;45.20;;
26201;SDS011;13944;28.562;77.188;2023-02-01T11:22:53;88.10;;;48.67;;
26201;SDS011;13944;28.562;77.188;2023-02-01T11:25:22;76.73;;;45.13;;
26201;SDS011;13944;28.562;77.188;2023-02-01T11:27:50;74.17;;;43.27;;
26201;SDS011;13944;28.562;77.188;2023-02-01T11:30:38;72.77;;;40.83;;
26201;SDS011;13944;28.562;77.188;2023-02-01T11:33:05;71.23;;;40.63;;
26201;SDS011;13944;28.562;77.188;2023-02-01T11:35:35;57.13;;;35.10;;
26201;SDS011;13944;28.562;77.188;2023-02-01T11:38:51;54.53;;;31.73;;
26201;SDS011;13944;28.562;77.188;2023-02-01T11:40:52;60.50;;;34.07;;
26201;SDS011;13944;28.562;77.188;2023-02-01T11:43:23;57.87;;;34.40;;
26201;SDS011;13944;28.562;77.188;2023-02-01T11:45:55;56.60;;;32.67;;
26201;SDS011;13944;28.562;77.188;2023-02-01T11:48:23;65.33;;;38.87;;
26201;SDS011;13944;28.562;77.188;2023-02-01T11:51:04;78.37;;;41.00;;
26201;SDS011;13944;28.562;77.188;2023-02-01T12:07:08;74.73;;;42.50;;
26201;SDS011;13944;28.562;77.188;2023-02-01T12:09:45;69.40;;;42.50;;
26201;SDS011;13944;28.562;77.188;2023-02-01T12:19:57;68.57;;;41.53;;
26201;SDS011;13944;28.562;77.188;2023-02-01T12:30:18;78.17;;;46.73;;
26201;SDS011;13944;28.562;77.188;2023-02-01T12:43:00;78.83;;;48.87;;
26201;SDS011;13944;28.562;77.188;2023-02-01T12:48:06;92.00;;;52.27;;
26201;SDS011;13944;28.562;77.188;2023-02-01T12:50:41;83.60;;;50.93;;
26201;SDS011;13944;28.562;77.188;2023-02-01T12:53:23;97.30;;;53.60;;
26201;SDS011;13944;28.562;77.188;2023-02-01T12:55:52;88.87;;;54.20;;
26201;SDS011;13944;28.562;77.188;2023-02-01T13:01:33;84.70;;;55.17;;
26201;SDS011;13944;28.562;77.188;2023-02-01T13:03:42;89.17;;;54.20;;
26201;SDS011;13944;28.562;77.188;2023-02-01T13:06:28;93.77;;;57.80;;
26201;SDS011;13944;28.562;77.188;2023-02-01T13:11:49;90.33;;;56.30;;
26201;SDS011;13944;28.562;77.188;2023-02-01T13:14:32;87.93;;;57.20;;
26201;SDS011;13944;28.562;77.188;2023-02-01T13:17:02;98.27;;;59.23;;
26201;SDS011;13944;28.562;77.188;2023-02-01T13:25:27;97.63;;;62.13;;
26201;SDS011;13944;28.562;77.188;2023-02-01T13:27:56;97.50;;;59.87;;
26201;SDS011;13944;28.562;77.188;2023-02-01T13:30:34;98.03;;;61.37;;
26201;SDS011;13944;28.562;77.188;2023-02-01T13:43:31;106.03;;;66.37;;
26201;SDS011;13944;28.562;77.188;2023-02-01T13:46:04;108.60;;;67.97;;
26201;SDS011;13944;28.562;77.188;2023-02-01T13:48:51;108.37;;;67.43;;
26201;SDS011;13944;28.562;77.188;2023-02-01T13:51:40;113.10;;;68.03;;
26201;SDS011;13944;28.562;77.188;2023-02-01T13:54:06;119.40;;;69.67;;
26201;SDS011;13944;28.562;77.188;2023-02-01T13:56:40;111.47;;;67.57;;
26201;SDS011;13944;28.562;77.188;2023-02-01T14:01:53;114.47;;;69.80;;
26201;SDS011;13944;28.562;77.188;2023-02-01T14:07:15;114.40;;;70.37;;
26201;SDS011;13944;28.562;77.188;2023-02-01T14:09:43;113.97;;;72.67;;
26201;SDS011;13944;28.562;77.188;2023-02-01T14:12:52;120.93;;;73.27;;
26201;SDS011;13944;28.562;77.188;2023-02-01T14:17:47;122.33;;;74.07;;
26201;SDS011;13944;28.562;77.188;2023-02-01T14:23:03;134.60;;;76.40;;
26201;SDS011;13944;28.562;77.188;2023-02-01T14:25:33;117.83;;;76.23;;
26201;SDS011;13944;28.562;77.188;2023-02-01T14:28:00;116.60;;;74.93;;
26201;SDS011;13944;28.562;77.188;2023-02-01T14:30:28;122.70;;;78.57;;
26201;SDS011;13944;28.562;77.188;2023-02-01T14:32:55;131.57;;;77.73;;
26201;SDS011;13944;28.562;77.188;2023-02-01T14:35:24;131.60;;;78.53;;
26201;SDS011;13944;28.562;77.188;2023-02-01T14:38:10;135.33;;;79.33;;
26201;SDS011;13944;28.562;77.188;2023-02-01T14:40:37;119.33;;;77.87;;
26201;SDS011;13944;28.562;77.188;2023-02-01T14:43:04;116.43;;;76.37;;
26201;SDS011;13944;28.562;77.188;2023-02-01T14:50:35;126.73;;;78.57;;
26201;SDS011;13944;28.562;77.188;2023-02-01T15:00:58;129.97;;;81.87;;
26201;SDS011;13944;28.562;77.188;2023-02-01T15:05:56;128.23;;;82.50;;
26201;SDS011;13944;28.562;77.188;2023-02-01T15:08:26;126.30;;;83.13;;
26201;SDS011;13944;28.562;77.188;2023-02-01T15:10:55;133.87;;;83.67;;
26201;SDS011;13944;28.562;77.188;2023-02-01T15:13:24;133.30;;;86.33;;
26201;SDS011;13944;28.562;77.188;2023-02-01T15:16:02;129.63;;;85.93;;
26201;SDS011;13944;28.562;77.188;2023-02-01T15:18:29;133.40;;;84.53;;
26201;SDS011;13944;28.562;77.188;2023-02-01T15:20:57;134.87;;;85.70;;
26201;SDS011;13944;28.562;77.188;2023-02-01T15:23:24;127.33;;;83.67;;
26201;SDS011;13944;28.562;77.188;2023-02-01T15:25:51;135.37;;;86.80;;
26201;SDS011;13944;28.562;77.188;2023-02-01T15:28:18;141.10;;;84.87;;
26201;SDS011;13944;28.562;77.188;2023-02-01T15:30:55;134.60;;;85.53;;
26201;SDS011;13944;28.562;77.188;2023-02-01T15:33:22;134.17;;;85.23;;
26201;SDS011;13944;28.562;77.188;2023-02-01T15:35:54;133.73;;;87.53;;
26201;SDS011;13944;28.562;77.188;2023-02-01T15:40:54;129.47;;;84.83;;
26201;SDS011;13944;28.562;77.188;2023-02-01T15:43:22;128.90;;;83.37;;
26201;SDS011;13944;28.562;77.188;2023-02-01T15:45:49;127.63;;;82.47;;
26201;SDS011;13944;28.562;77.188;2023-02-01T15:48:25;130.40;;;86.80;;
26201;SDS011;13944;28.562;77.188;2023-02-01T15:50:53;138.07;;;84.77;;
26201;SDS011;13944;28.562;77.188;2023-02-01T15:53:24;130.33;;;82.43;;
26201;SDS011;13944;28.562;77.188;2023-02-01T15:55:58;123.73;;;84.07;;
26201;SDS011;13944;28.562;77.188;2023-02-01T15:58:26;135.43;;;84.00;;
26201;SDS011;13944;28.562;77.188;2023-02-01T16:00:55;141.17;;;87.00;;
26201;SDS011;13944;28.562;77.188;2023-02-01T16:03:25;131.20;;;84.53;;
26201;SDS011;13944;28.562;77.188;2023-02-01T16:05:56;136.10;;;84.93;;
26201;SDS011;13944;28.562;77.188;2023-02-01T16:08:25;128.93;;;86.07;;
26201;SDS011;13944;28.562;77.188;2023-02-01T16:10:53;130.50;;;85.27;;
26201;SDS011;13944;28.562;77.188;2023-02-01T16:13:20;133.20;;;85.27;;
26201;SDS011;13944;28.562;77.188;2023-02-01T16:15:48;151.13;;;89.17;;
26201;SDS011;13944;28.562;77.188;2023-02-01T16:18:15;140.97;;;87.73;;
26201;SDS011;13944;28.562;77.188;2023-02-01T16:20:42;148.00;;;87.50;;
26201;SDS011;13944;28.562;77.188;2023-02-01T16:23:09;134.83;;;90.03;;
26201;SDS011;13944;28.562;77.188;2023-02-01T16:25:37;142.77;;;90.47;;
26201;SDS011;13944;28.562;77.188;2023-02-01T16:28:04;142.73;;;89.17;;
26201;SDS011;13944;28.562;77.188;2023-02-01T16:30:31;149.60;;;94.20;;
26201;SDS011;13944;28.562;77.188;2023-02-01T16:32:59;151.10;;;95.83;;
26201;SDS011;13944;28.562;77.188;2023-02-01T16:35:34;160.37;;;97.67;;
26201;SDS011;13944;28.562;77.188;2023-02-01T16:38:03;155.93;;;98.80;;
26201;SDS011;13944;28.562;77.188;2023-02-01T16:40:34;152.13;;;94.60;;
26201;SDS011;13944;28.562;77.188;2023-02-01T16:43:04;143.93;;;93.33;;
26201;SDS011;13944;28.562;77.188;2023-02-01T16:45:35;143.97;;;92.00;;
26201;SDS011;13944;28.562;77.188;2023-02-01T16:48:04;153.67;;;96.57;;
26201;SDS011;13944;28.562;77.188;2023-02-01T16:50:31;150.50;;;97.00;;
26201;SDS011;13944;28.562;77.188;2023-02-01T16:52:59;149.13;;;94.33;;
26201;SDS011;13944;28.562;77.188;2023-02-01T16:55:26;144.30;;;93.03;;
26201;SDS011;13944;28.562;77.188;2023-02-01T16:57:53;149.17;;;97.50;;
26201;SDS011;13944;28.562;77.188;2023-02-01T17:00:20;154.87;;;100.50;;